aviador You're here:

SKCL Decoded Metar

CALI in COLOMBIA
Report Time2017-11-21 04:00:00
UTC Time2017-11-21 04:12:54
Flight Rules vfr VFR
Wind340° at 04 kt
W.Decomp.*RWY 01: 3.6 kt HW 1.8 kt LCW
W.Rank340° ranks 1
Current wind is below 340° avg. (8.1)
Visibility9999 m
Phenomena:N/A
Clouds:Scattered 033 Hf
Broken 100 Hf
Ceiling10,000 ft
Temp22°C (ISA +13)
Dew Point22°C (100% RH)
QNH1016 hPa
Density Alt4,987 ft
Elevation3,179 ft
Report Wrong Elevation
Raw Report
METAR SKCL 210400Z 34004KT 310V010 9999 SCT033 BKN100 22/22 A3001=

Extra information for SKCL:More info

Metar Taf Metar & Taf Last 4 Metars F.Rules Stats Wind Profile Meteogram Temp Stats Airport Information Weather charts Add Link Nearby VenuesMetar ALERT Operation Metar Decoded Social comments